Time;durP1;ratioP1;P1;durP2;ratioP2;P2;SDS_P1;SDS_P2;PMS_P1;PMS_P2;Temp;Humidity;BMP_temperature;BMP_pressure;BME280_temperature;BME280_humidity;BME280_pressure;Samples;Min_cycle;Max_cycle;Signal;HPM_P1;HPM_P2
2022/03/03 00:00:44;;;;;;;22.40;18.13;;;;;;;-2.67;100.00;100661.75;5002832;28;20633;-54
2022/03/03 00:03:10;;;;;;;19.07;16.97;;;;;;;-2.70;100.00;100652.31;5003396;28;20219;-54
2022/03/03 00:05:35;;;;;;;23.97;19.50;;;;;;;-2.71;100.00;100662.38;5003851;28;20603;-54
2022/03/03 00:08:00;;;;;;;22.67;18.90;;;;;;;-2.73;100.00;100656.34;5004587;28;20184;-55
2022/03/03 00:10:26;;;;;;;20.17;18.07;;;;;;;-2.74;100.00;100664.75;5006578;28;20239;-55
2022/03/03 00:12:51;;;;;;;23.50;19.30;;;;;;;-2.77;100.00;100661.25;5006628;28;20181;-55
2022/03/03 00:15:17;;;;;;;22.03;17.50;;;;;;;-2.79;100.00;100660.31;4989600;28;20203;-52
2022/03/03 00:17:42;;;;;;;23.00;18.93;;;;;;;-2.81;100.00;100656.84;5006003;28;20193;-52
2022/03/03 00:20:08;;;;;;;23.77;19.67;;;;;;;-2.83;100.00;100655.88;5008270;28;20664;-53
2022/03/03 00:22:33;;;;;;;22.00;18.53;;;;;;;-2.84;100.00;100656.69;5008847;28;20223;-53
2022/03/03 00:24:59;;;;;;;22.10;18.73;;;;;;;-2.85;100.00;100661.66;5007522;28;20647;-53
2022/03/03 00:27:24;;;;;;;22.03;18.93;;;;;;;-2.86;100.00;100655.72;5005149;28;20250;-56
2022/03/03 00:29:49;;;;;;;25.13;20.33;;;;;;;-2.85;100.00;100657.47;4988912;28;20262;-54
2022/03/03 00:32:16;;;;;;;23.93;19.73;;;;;;;-2.84;100.00;100654.16;5007376;28;20216;-54
2022/03/03 00:34:41;;;;;;;22.60;18.83;;;;;;;-2.84;100.00;100659.22;4986044;28;20188;-53
2022/03/03 00:37:07;;;;;;;23.00;19.77;;;;;;;-2.84;100.00;100649.09;5006638;28;20911;-55
2022/03/03 00:39:32;;;;;;;23.10;18.97;;;;;;;-2.85;100.00;100647.34;5003556;28;20678;-54
2022/03/03 00:41:57;;;;;;;21.03;18.57;;;;;;;-2.89;100.00;100647.97;5008436;28;20196;-54
2022/03/03 00:44:23;;;;;;;21.70;18.87;;;;;;;-2.92;100.00;100645.28;5004878;28;20224;-52
2022/03/03 00:46:48;;;;;;;22.53;18.83;;;;;;;-2.96;100.00;100645.94;5005830;28;20192;-54
2022/03/03 00:49:13;;;;;;;21.80;18.93;;;;;;;-2.97;100.00;100650.09;5006000;28;21621;-54
2022/03/03 00:51:39;;;;;;;20.77;18.40;;;;;;;-2.99;100.00;100644.09;5006887;28;20923;-55
2022/03/03 00:54:04;;;;;;;22.63;18.90;;;;;;;-2.99;100.00;100643.22;5006007;28;20723;-54
2022/03/03 00:56:29;;;;;;;22.87;19.00;;;;;;;-3.00;100.00;100644.88;5003895;28;20649;-54
2022/03/03 00:58:55;;;;;;;21.90;18.93;;;;;;;-3.00;100.00;100651.63;5005158;28;20879;-56
2022/03/03 01:01:20;;;;;;;25.93;21.33;;;;;;;-3.00;100.00;100660.06;5004830;28;20299;-55
2022/03/03 01:03:45;;;;;;;26.07;20.83;;;;;;;-3.01;100.00;100662.53;5005388;28;20291;-55
2022/03/03 01:06:11;;;;;;;24.03;20.60;;;;;;;-3.03;100.00;100666.66;5008335;28;20196;-54
2022/03/03 01:08:37;;;;;;;22.97;19.87;;;;;;;-3.08;100.00;100668.94;5005505;28;20254;-54
2022/03/03 01:11:03;;;;;;;23.37;19.57;;;;;;;-3.11;100.00;100668.78;5011728;28;20630;-55
2022/03/03 01:13:28;;;;;;;27.13;21.23;;;;;;;-3.14;100.00;100669.50;5001264;28;20540;-55
2022/03/03 01:15:54;;;;;;;26.33;21.87;;;;;;;-3.16;100.00;100662.59;5009490;28;20192;-55
2022/03/03 01:18:21;;;;;;;25.97;20.87;;;;;;;-3.16;100.00;100663.47;5004946;28;20200;-54
2022/03/03 01:20:46;;;;;;;25.13;21.00;;;;;;;-3.18;100.00;100669.25;5004035;28;20204;-54
2022/03/03 01:23:12;;;;;;;24.50;20.13;;;;;;;-3.17;100.00;100668.44;4990446;28;20227;-54
2022/03/03 01:25:37;;;;;;;23.47;20.57;;;;;;;-3.18;100.00;100665.06;5005442;28;20205;-55
2022/03/03 01:28:03;;;;;;;26.20;21.30;;;;;;;-3.16;100.00;100662.59;5005940;28;20199;-54
2022/03/03 01:30:29;;;;;;;24.10;20.67;;;;;;;-3.15;100.00;100656.72;5005018;28;20216;-54
2022/03/03 01:32:55;;;;;;;24.73;20.43;;;;;;;-3.15;100.00;100651.66;5006377;28;20238;-53
2022/03/03 01:35:20;;;;;;;24.13;20.17;;;;;;;-3.16;100.00;100658.41;5007019;28;20193;-53
2022/03/03 01:37:46;;;;;;;22.77;19.90;;;;;;;-3.18;100.00;100647.31;5006256;28;20211;-53
2022/03/03 01:40:11;;;;;;;24.47;20.30;;;;;;;-3.22;100.00;100646.31;5005664;28;20204;-53
2022/03/03 01:42:37;;;;;;;21.40;19.03;;;;;;;-3.24;100.00;100645.34;5005755;28;20696;-52
2022/03/03 01:45:03;;;;;;;21.87;18.57;;;;;;;-3.26;100.00;100641.88;5008370;28;20196;-54
2022/03/03 01:47:29;;;;;;;21.97;18.97;;;;;;;-3.29;100.00;100639.16;5005617;28;20210;-54
2022/03/03 01:49:57;;;;;;;24.50;20.27;;;;;;;-3.31;100.00;100644.94;5006504;28;20724;-53
2022/03/03 01:52:22;;;;;;;21.43;19.10;;;;;;;-3.33;100.00;100644.88;5009832;28;20530;-53
2022/03/03 01:54:48;;;;;;;25.10;20.60;;;;;;;-3.36;100.00;100647.25;5007664;28;20201;-54
2022/03/03 01:57:17;;;;;;;23.83;20.57;;;;;;;-3.39;100.00;100644.53;5005685;28;20194;-54
2022/03/03 01:59:43;;;;;;;24.13;19.90;;;;;;;-3.43;100.00;100637.56;5007945;28;20258;-55
2022/03/03 02:02:10;;;;;;;27.87;20.83;;;;;;;-3.47;100.00;100635.66;5006606;28;20304;-54
2022/03/03 02:04:39;;;;;;;23.33;20.17;;;;;;;-3.50;100.00;100627.91;5007438;28;20225;-54
2022/03/03 02:07:09;;;;;;;25.83;19.80;;;;;;;-3.52;100.00;100627.81;5004579;28;20261;-54
2022/03/03 02:09:35;;;;;;;26.33;21.63;;;;;;;-3.50;100.00;100632.97;5006778;28;20220;-54
2022/03/03 02:12:00;;;;;;;24.37;20.13;;;;;;;-3.50;100.00;100635.50;5007686;28;20247;-55
2022/03/03 02:14:26;;;;;;;24.97;21.30;;;;;;;-3.49;100.00;100632.19;5005202;28;20658;-54
2022/03/03 02:16:51;;;;;;;23.53;20.43;;;;;;;-3.48;100.00;100619.63;5005710;28;20264;-54
2022/03/03 02:19:18;;;;;;;23.47;19.13;;;;;;;-3.45;100.00;100629.00;5005891;28;20554;-54
2022/03/03 02:21:46;;;;;;;23.83;19.97;;;;;;;-3.45;100.00;100612.19;5005827;28;20275;-54
2022/03/03 02:24:11;;;;;;;24.10;20.93;;;;;;;-3.45;100.00;100621.44;5004688;28;20215;-55
2022/03/03 02:26:39;;;;;;;22.63;19.60;;;;;;;-3.46;100.00;100614.63;4984017;28;20869;-54
2022/03/03 02:29:05;;;;;;;22.73;18.67;;;;;;;-3.50;100.00;100616.13;5001376;28;20192;-53
2022/03/03 02:31:30;;;;;;;23.47;18.70;;;;;;;-3.53;100.00;100616.84;5005713;28;20840;-54
2022/03/03 02:33:57;;;;;;;22.33;19.20;;;;;;;-3.54;100.00;100616.75;5007345;28;20180;-54
2022/03/03 02:36:26;;;;;;;21.80;18.93;;;;;;;-3.56;100.00;100613.28;4988388;28;20730;-54
2022/03/03 02:38:53;;;;;;;23.53;19.10;;;;;;;-3.59;100.00;100616.50;5004011;28;20295;-54
2022/03/03 02:41:19;;;;;;;22.70;18.57;;;;;;;-3.62;100.00;100616.34;5006470;28;20208;-53
2022/03/03 02:43:45;;;;;;;24.00;18.60;;;;;;;-3.63;100.00;100608.66;4988111;28;20243;-53
2022/03/03 02:46:10;;;;;;;22.93;19.10;;;;;;;-3.67;100.00;100603.44;5008820;28;20227;-54
2022/03/03 02:48:36;;;;;;;22.23;19.83;;;;;;;-3.68;100.00;100609.28;5007473;28;20188;-53
2022/03/03 02:51:02;;;;;;;21.97;18.70;;;;;;;-3.69;100.00;100611.75;5007340;28;20215;-54
2022/03/03 02:53:28;;;;;;;22.87;19.23;;;;;;;-3.71;100.00;100603.19;5006629;28;20192;-55
2022/03/03 02:55:56;;;;;;;23.83;19.80;;;;;;;-3.75;100.00;100593.69;5006429;28;20211;-55
2022/03/03 02:58:21;;;;;;;23.20;19.87;;;;;;;-3.75;100.00;100596.22;5004673;28;20188;-54
2022/03/03 03:00:47;;;;;;;21.50;18.47;;;;;;;-3.77;100.00;100595.28;5002398;28;20223;-55
2022/03/03 03:03:17;;;;;;;24.50;19.63;;;;;;;-3.77;100.00;100593.63;5004142;28;20212;-53
2022/03/03 03:05:43;;;;;;;23.60;18.80;;;;;;;-3.76;100.00;100597.00;5005849;28;20322;-55
2022/03/03 03:08:09;;;;;;;21.33;17.93;;;;;;;-3.77;100.00;100603.75;5004313;28;20263;-54
2022/03/03 03:10:35;;;;;;;26.70;20.93;;;;;;;-3.76;100.00;100591.97;5004353;28;20753;-53
2022/03/03 03:13:02;;;;;;;27.00;22.80;;;;;;;-3.76;100.00;100592.84;5005028;28;20289;-54
2022/03/03 03:15:27;;;;;;;26.43;21.73;;;;;;;-3.79;100.00;100600.25;5004053;28;20553;-53
2022/03/03 03:17:53;;;;;;;24.50;21.87;;;;;;;-3.79;100.00;100592.66;5007918;28;20199;-53
2022/03/03 03:20:19;;;;;;;24.97;21.37;;;;;;;-3.80;100.00;100585.88;5006388;28;20204;-53
2022/03/03 03:22:44;;;;;;;24.33;20.37;;;;;;;-3.81;100.00;100588.34;4988597;28;20270;-53
2022/03/03 03:25:12;;;;;;;25.17;20.40;;;;;;;-3.82;100.00;100574.78;5004611;28;20630;-53
2022/03/03 03:27:38;;;;;;;24.60;20.13;;;;;;;-3.81;100.00;100580.75;5005994;28;20184;-53
2022/03/03 03:30:06;;;;;;;24.73;19.90;;;;;;;-3.81;100.00;100578.22;5005639;28;20562;-53
2022/03/03 03:32:31;;;;;;;23.80;19.60;;;;;;;-3.80;100.00;100578.28;4991410;28;20573;-53
2022/03/03 03:34:57;;;;;;;22.03;18.00;;;;;;;-3.80;100.00;100572.38;5004167;28;20199;-54
2022/03/03 03:37:22;;;;;;;21.90;19.13;;;;;;;-3.80;100.00;100573.22;4989905;28;20680;-53
2022/03/03 03:39:48;;;;;;;22.40;19.53;;;;;;;-3.78;100.00;100568.28;5002916;28;20238;-53
2022/03/03 03:42:13;;;;;;;24.60;20.63;;;;;;;-3.81;100.00;100581.59;5005052;28;20340;-54
2022/03/03 03:44:39;;;;;;;25.73;21.27;;;;;;;-3.81;100.00;100575.69;4999026;28;20665;-54
2022/03/03 03:47:06;;;;;;;26.93;21.60;;;;;;;-3.83;100.00;100579.00;5005355;28;20192;-55
2022/03/03 03:49:31;;;;;;;29.07;23.57;;;;;;;-3.85;100.00;100574.63;5008611;28;20685;-53
2022/03/03 03:51:57;;;;;;;27.07;22.37;;;;;;;-3.88;100.00;100577.88;5010211;28;20212;-53
2022/03/03 03:54:22;;;;;;;29.83;24.77;;;;;;;-3.90;100.00;100569.31;4991959;28;20180;-54
2022/03/03 03:56:47;;;;;;;28.40;23.33;;;;;;;-3.94;100.00;100569.09;5009225;28;20231;-52
2022/03/03 03:59:13;;;;;;;26.50;22.17;;;;;;;-3.98;100.00;100563.00;4990190;28;20210;-54
2022/03/03 04:01:38;;;;;;;26.43;21.77;;;;;;;-4.04;100.00;100566.06;5008825;28;20193;-54
2022/03/03 04:04:04;;;;;;;23.90;20.83;;;;;;;-4.08;100.00;100569.22;5005617;28;20265;-54
2022/03/03 04:06:29;;;;;;;28.20;22.20;;;;;;;-4.11;100.00;100563.97;4991876;28;20203;-53
2022/03/03 04:08:54;;;;;;;24.30;21.10;;;;;;;-4.14;100.00;100562.16;5008678;28;20196;-54
2022/03/03 04:11:20;;;;;;;26.93;21.07;;;;;;;-4.17;100.00;100562.00;5005370;28;20773;-53
2022/03/03 04:13:45;;;;;;;23.53;20.07;;;;;;;-4.22;100.00;100563.38;5008686;28;20221;-54
2022/03/03 04:16:11;;;;;;;23.87;19.87;;;;;;;-4.24;100.00;100561.56;5009815;28;20267;-54
2022/03/03 04:18:36;;;;;;;21.47;18.73;;;;;;;-4.26;100.00;100558.97;5004258;28;20192;-53
2022/03/03 04:21:02;;;;;;;22.70;18.60;;;;;;;-4.28;100.00;100563.06;5009341;28;20224;-54
2022/03/03 04:23:27;;;;;;;24.77;20.17;;;;;;;-4.27;100.00;100554.69;5007577;28;20223;-55
2022/03/03 04:25:52;;;;;;;24.97;19.73;;;;;;;-4.27;100.00;100549.63;5008496;28;20192;-54
2022/03/03 04:28:18;;;;;;;26.70;20.43;;;;;;;-4.26;100.00;100558.97;5005720;28;20254;-54
2022/03/03 04:30:43;;;;;;;24.83;20.23;;;;;;;-4.24;100.00;100553.97;5006199;28;20612;-53
2022/03/03 04:33:09;;;;;;;25.47;19.50;;;;;;;-4.23;100.00;100558.25;5006152;28;20195;-53
2022/03/03 04:35:34;;;;;;;24.63;20.23;;;;;;;-4.24;100.00;100548.94;4990693;28;20192;-53
2022/03/03 04:38:00;;;;;;;30.33;20.77;;;;;;;-4.24;100.00;100548.94;5006067;28;20650;-52
2022/03/03 04:40:25;;;;;;;25.73;20.13;;;;;;;-4.24;100.00;100543.88;5004247;28;20219;-54
2022/03/03 04:42:51;;;;;;;24.67;20.57;;;;;;;-4.23;100.00;100545.63;5006198;28;20211;-55
2022/03/03 04:45:16;;;;;;;23.93;20.07;;;;;;;-4.23;100.00;100543.94;5005864;28;20200;-54
2022/03/03 04:47:42;;;;;;;29.23;20.83;;;;;;;-4.23;100.00;100543.09;5005482;28;20223;-53
2022/03/03 04:50:09;;;;;;;25.33;21.50;;;;;;;-4.24;100.00;100543.88;5003346;28;20214;-54
2022/03/03 04:52:34;;;;;;;23.60;20.07;;;;;;;-4.26;100.00;100541.28;5008134;28;20188;-55
2022/03/03 04:55:00;;;;;;;26.60;20.83;;;;;;;-4.27;100.00;100537.00;5009277;28;20192;-53
2022/03/03 04:57:25;;;;;;;26.20;21.50;;;;;;;-4.31;100.00;100538.47;5006703;28;20195;-55
2022/03/03 04:59:50;;;;;;;25.57;20.80;;;;;;;-4.34;100.00;100545.03;5007282;28;20213;-55
2022/03/03 05:02:16;;;;;;;23.60;19.50;;;;;;;-4.38;100.00;100536.41;5006900;28;20184;-55
2022/03/03 05:04:41;;;;;;;26.73;21.00;;;;;;;-4.40;100.00;100537.13;5006478;28;20759;-54
2022/03/03 05:07:06;;;;;;;22.93;19.67;;;;;;;-4.45;100.00;100537.72;5004243;28;20211;-55
2022/03/03 05:09:32;;;;;;;21.30;19.00;;;;;;;-4.47;100.00;100546.88;4988915;28;20281;-54
2022/03/03 05:11:59;;;;;;;23.30;19.20;;;;;;;-4.46;100.00;100535.09;5007331;28;20195;-55
2022/03/03 05:14:25;;;;;;;24.40;20.50;;;;;;;-4.47;100.00;100535.91;5005515;28;20212;-56
2022/03/03 05:16:50;;;;;;;23.33;19.13;;;;;;;-4.50;100.00;100535.72;5004741;28;20215;-53
2022/03/03 05:19:15;;;;;;;23.63;19.87;;;;;;;-4.52;100.00;100534.78;5006422;28;20242;-55
2022/03/03 05:21:41;;;;;;;22.73;19.83;;;;;;;-4.56;100.00;100526.16;5008204;28;20185;-55
2022/03/03 05:24:06;;;;;;;23.30;18.90;;;;;;;-4.56;100.00;100525.28;5008922;28;20247;-54
2022/03/03 05:26:32;;;;;;;23.13;19.23;;;;;;;-4.56;100.00;100528.69;5009227;28;20196;-54
2022/03/03 05:28:57;;;;;;;22.70;18.70;;;;;;;-4.55;100.00;100527.00;5008125;28;20188;-53
2022/03/03 05:31:22;;;;;;;24.83;18.97;;;;;;;-4.54;100.00;100531.28;5008428;28;20212;-54
2022/03/03 05:33:48;;;;;;;23.30;19.70;;;;;;;-4.53;100.00;100528.81;5007449;28;20188;-53
2022/03/03 05:36:23;;;;;;;26.63;20.50;;;;;;;-4.50;100.00;100513.84;5006060;28;20184;-54
2022/03/03 05:38:49;;;;;;;24.17;19.20;;;;;;;-4.49;100.00;100524.84;5006511;28;20582;-54
2022/03/03 05:41:14;;;;;;;24.20;19.77;;;;;;;-4.48;100.00;100524.91;5006987;28;20223;-55
2022/03/03 05:43:41;;;;;;;22.63;19.77;;;;;;;-4.46;100.00;100525.00;5005445;28;20243;-54
2022/03/03 05:46:06;;;;;;;23.90;19.63;;;;;;;-4.46;100.00;100525.88;5007769;28;20332;-54
2022/03/03 05:48:32;;;;;;;24.73;19.50;;;;;;;-4.45;100.00;100514.09;5007850;28;20181;-53
2022/03/03 05:50:57;;;;;;;21.97;19.03;;;;;;;-4.47;100.00;100514.03;4988957;28;20204;-54
2022/03/03 05:53:23;;;;;;;23.47;18.97;;;;;;;-4.45;100.00;100517.50;5007400;28;20193;-55
2022/03/03 05:55:56;;;;;;;23.13;18.50;;;;;;;-4.44;100.00;100511.69;5008532;28;20208;-53
2022/03/03 05:58:25;;;;;;;23.70;18.63;;;;;;;-4.45;100.00;100507.41;5005374;28;20192;-56
2022/03/03 06:00:54;;;;;;;21.17;18.00;;;;;;;-4.46;100.00;100509.84;5005161;28;20219;-53
2022/03/03 06:03:21;;;;;;;22.93;19.20;;;;;;;-4.46;100.00;100510.72;5005509;28;20270;-55
2022/03/03 06:05:52;;;;;;;25.13;20.97;;;;;;;-4.41;100.00;100516.03;5007727;28;20192;-55
2022/03/03 06:08:23;;;;;;;25.10;20.50;;;;;;;-4.42;100.00;100523.53;5006283;28;20191;-56
2022/03/03 06:10:53;;;;;;;25.60;20.07;;;;;;;-4.47;100.00;100521.59;5005682;28;21034;-54
2022/03/03 06:13:35;;;;;;;26.27;21.50;;;;;;;-4.48;100.00;100524.91;5008848;28;20180;-55
2022/03/03 06:16:03;;;;;;;26.00;20.90;;;;;;;-4.46;100.00;100530.03;5009360;28;20418;-54
2022/03/03 06:18:31;;;;;;;26.70;21.10;;;;;;;-4.48;100.00;100535.03;5008751;28;20192;-55
2022/03/03 06:20:58;;;;;;;25.83;21.17;;;;;;;-4.50;100.00;100541.63;5008673;28;20203;-54
2022/03/03 06:23:24;;;;;;;26.57;20.07;;;;;;;-4.50;100.00;100550.88;4998667;28;20208;-54
2022/03/03 06:25:55;;;;;;;25.83;20.60;;;;;;;-4.51;100.00;100544.94;5007703;28;21356;-54
2022/03/03 06:28:21;;;;;;;24.97;20.67;;;;;;;-4.49;100.00;100548.44;5008603;28;20218;-54
2022/03/03 06:30:46;;;;;;;30.90;20.43;;;;;;;-4.45;100.00;100550.34;5009131;28;20681;-54
2022/03/03 06:33:11;;;;;;;31.83;22.97;;;;;;;-4.36;100.00;100559.22;5009106;28;20180;-55
2022/03/03 06:35:37;;;;;;;36.67;26.37;;;;;;;-4.22;100.00;100560.84;5009154;28;20188;-55
2022/03/03 06:38:05;;;;;;;34.87;27.17;;;;;;;-4.01;100.00;100563.69;5007780;28;20275;-56
2022/03/03 06:40:30;;;;;;;31.23;25.17;;;;;;;-3.79;100.00;100557.25;5007211;28;20216;-55
2022/03/03 06:43:00;;;;;;;28.97;23.37;;;;;;;-3.65;100.00;100560.53;5008653;28;20266;-55
2022/03/03 06:45:26;;;;;;;30.30;21.97;;;;;;;-3.46;100.00;100562.38;5015489;28;20205;-56
2022/03/03 06:47:54;;;;;;;32.40;22.93;;;;;;;-3.26;100.00;100557.47;5005822;28;20188;-55
2022/03/03 06:50:19;;;;;;;29.37;21.33;;;;;;;-3.16;100.00;100549.56;5007998;28;20306;-55
2022/03/03 06:52:47;;;;;;;23.50;19.43;;;;;;;-3.00;100.00;100545.25;5005103;28;20593;-55
2022/03/03 06:55:15;;;;;;;21.47;18.53;;;;;;;-2.86;100.00;100540.88;5003284;28;20235;-55
2022/03/03 06:57:41;;;;;;;22.53;18.23;;;;;;;-2.73;100.00;100538.16;5008471;28;20196;-55
2022/03/03 07:00:08;;;;;;;22.60;17.57;;;;;;;-2.61;100.00;100525.19;5008996;28;20224;-55
2022/03/03 07:02:34;;;;;;;21.43;17.83;;;;;;;-2.49;100.00;100508.03;5018345;28;20196;-55
2022/03/03 07:05:01;;;;;;;22.43;18.17;;;;;;;-2.36;100.00;100504.44;5009705;28;20831;-55
2022/03/03 07:07:27;;;;;;;20.10;17.23;;;;;;;-2.27;100.00;100493.00;5007911;28;20246;-55
2022/03/03 07:09:53;;;;;;;20.93;16.47;;;;;;;-2.23;100.00;100489.78;5008840;28;20254;-55
2022/03/03 07:12:20;;;;;;;22.37;16.97;;;;;;;-2.21;100.00;100491.63;5007226;28;20262;-55
2022/03/03 07:14:45;;;;;;;21.73;16.67;;;;;;;-2.17;100.00;100485.88;5009033;28;20267;-55
2022/03/03 07:17:31;;;;;;;23.03;17.73;;;;;;;-2.06;100.00;100485.50;5008033;28;20330;-55
2022/03/03 07:20:04;;;;;;;22.23;17.17;;;;;;;-1.96;100.00;100484.22;5012363;28;20554;-53
2022/03/03 07:22:40;;;;;;;20.90;17.27;;;;;;;-1.92;100.00;100487.00;5012106;28;20215;-53
2022/03/03 07:25:08;;;;;;;21.80;17.17;;;;;;;-1.84;100.00;100487.34;5012608;28;20541;-53
2022/03/03 07:27:34;;;;;;;21.20;17.10;;;;;;;-1.78;100.00;100491.81;5010595;28;20771;-54
2022/03/03 07:30:08;;;;;;;18.90;16.53;;;;;;;-1.73;100.00;100493.75;5012869;28;20694;-54
2022/03/03 07:32:46;;;;;;;20.03;16.60;;;;;;;-1.69;100.00;100487.13;5012483;28;20542;-54
2022/03/03 07:35:14;;;;;;;20.23;15.73;;;;;;;-1.62;100.00;100479.00;5012469;28;20195;-56
2022/03/03 07:37:57;;;;;;;18.40;15.23;;;;;;;-1.50;100.00;100485.41;5010848;28;20274;-54
2022/03/03 07:40:27;;;;;;;18.97;15.80;;;;;;;-1.39;100.00;100482.53;5010603;28;20295;-54
2022/03/03 07:42:54;;;;;;;19.47;16.53;;;;;;;-1.27;100.00;100481.31;4993885;28;20209;-55
2022/03/03 07:45:20;;;;;;;19.53;17.30;;;;;;;-1.16;100.00;100475.00;5006772;28;20204;-54
2022/03/03 07:47:48;;;;;;;21.07;17.80;;;;;;;-1.08;100.00;100485.47;5009546;28;20547;-53
2022/03/03 07:50:13;;;;;;;20.60;17.20;;;;;;;-1.03;100.00;100484.00;5010437;28;20208;-52
2022/03/03 07:52:39;;;;;;;23.40;20.40;;;;;;;-0.97;100.00;100491.00;5008714;28;22227;-53
2022/03/03 07:55:06;;;;;;;24.33;20.63;;;;;;;-0.90;100.00;100484.50;5003745;28;20197;-55
2022/03/03 07:57:38;;;;;;;25.27;20.57;;;;;;;-0.83;100.00;100484.81;5006367;28;20540;-52
2022/03/03 08:00:09;;;;;;;25.40;21.10;;;;;;;-0.73;100.00;100485.16;5007613;28;20213;-55
2022/03/03 08:02:35;;;;;;;28.03;23.80;;;;;;;-0.67;100.00;100483.75;5006855;28;20184;-55
2022/03/03 08:05:02;;;;;;;25.57;21.17;;;;;;;-0.56;100.00;100483.31;5012441;28;20200;-54
2022/03/03 08:07:27;;;;;;;22.73;20.23;;;;;;;-0.47;100.00;100476.91;5011262;28;20193;-54
2022/03/03 08:09:59;;;;;;;21.90;18.20;;;;;;;-0.35;100.00;100478.19;5011267;28;20241;-54
2022/03/03 08:12:25;;;;;;;23.60;20.43;;;;;;;-0.22;100.00;100488.03;5011514;28;20222;-53
2022/03/03 08:14:51;;;;;;;23.70;19.87;;;;;;;-0.10;100.00;100477.47;5011450;28;20263;-54
2022/03/03 08:17:18;;;;;;;24.20;19.53;;;;;;;0.02;100.00;100488.91;5010568;28;20183;-54
2022/03/03 08:19:44;;;;;;;22.07;19.00;;;;;;;0.14;100.00;100491.88;5009444;28;20219;-53
2022/03/03 08:22:12;;;;;;;22.60;19.03;;;;;;;0.29;100.00;100486.50;5010290;28;20200;-54
2022/03/03 08:24:42;;;;;;;20.87;17.97;;;;;;;0.41;100.00;100483.50;5009231;28;20600;-54
2022/03/03 08:27:12;;;;;;;21.60;18.63;;;;;;;0.53;100.00;100480.53;4993497;28;20187;-53
2022/03/03 08:29:38;;;;;;;19.53;17.53;;;;;;;0.63;100.00;100485.13;5006131;28;20226;-54
2022/03/03 08:32:09;;;;;;;21.20;18.90;;;;;;;0.72;100.00;100485.47;5011330;28;20255;-54
2022/03/03 08:34:47;;;;;;;25.97;22.83;;;;;;;0.82;100.00;100480.66;5010894;28;20253;-54
2022/03/03 08:37:23;;;;;;;26.00;22.03;;;;;;;0.88;100.00;100479.19;5010541;28;20200;-54
2022/03/03 08:39:53;;;;;;;28.17;22.40;;;;;;;0.98;100.00;100477.81;5011245;28;20627;-54
2022/03/03 08:42:23;;;;;;;24.53;20.70;;;;;;;1.05;100.00;100481.44;5010911;28;20223;-52
2022/03/03 08:44:53;;;;;;;23.67;20.73;;;;;;;1.09;100.00;100480.72;5011191;28;20187;-52
2022/03/03 08:47:21;;;;;;;23.27;20.13;;;;;;;1.20;100.00;100489.56;5007214;28;20254;-54
2022/03/03 08:49:54;;;;;;;24.03;20.90;;;;;;;1.23;100.00;100495.59;5009009;28;20298;-54
2022/03/03 08:52:21;;;;;;;28.40;20.90;;;;;;;1.26;100.00;100501.66;5006850;28;20207;-54
2022/03/03 08:54:46;;;;;;;27.63;22.40;;;;;;;1.33;100.00;100506.16;5010957;28;20238;-54
2022/03/03 08:57:12;;;;;;;24.60;21.87;;;;;;;1.37;100.00;100502.00;5010493;28;20180;-54
2022/03/03 08:59:37;;;;;;;28.17;21.93;;;;;;;1.46;100.00;100492.09;5013251;28;20208;-53
2022/03/03 09:02:03;;;;;;;24.53;21.93;;;;;;;1.53;100.00;100493.13;5011030;28;20247;-53
2022/03/03 09:04:29;;;;;;;22.87;20.40;;;;;;;1.64;100.00;100494.38;5010669;28;20215;-54
2022/03/03 09:06:54;;;;;;;26.90;21.33;;;;;;;1.72;100.00;100496.25;5010846;28;20204;-54
2022/03/03 09:09:19;;;;;;;23.50;20.20;;;;;;;1.84;100.00;100504.28;5010081;28;20561;-53
2022/03/03 09:11:45;;;;;;;25.57;21.53;;;;;;;1.85;100.00;100508.56;5009164;28;20307;-53
2022/03/03 09:14:11;;;;;;;28.90;21.40;;;;;;;2.03;100.00;100521.03;5010851;28;20224;-55
2022/03/03 09:16:37;;;;;;;22.93;20.37;;;;;;;2.13;98.84;100512.81;5009199;28;20363;-54
2022/03/03 09:19:02;;;;;;;94.17;26.90;;;;;;;2.05;97.12;100511.72;5009169;28;20192;-53
2022/03/03 09:21:28;;;;;;;27.13;20.17;;;;;;;2.09;97.35;100510.13;5010177;28;20208;-54
2022/03/03 09:23:54;;;;;;;23.33;19.80;;;;;;;2.17;97.27;100510.38;5009819;28;20216;-53
2022/03/03 09:26:19;;;;;;;21.53;18.47;;;;;;;2.27;97.45;100508.09;5006534;28;20276;-54
2022/03/03 09:28:45;;;;;;;21.47;18.50;;;;;;;2.33;97.03;100509.97;5008723;28;20638;-54
2022/03/03 09:31:10;;;;;;;22.00;19.70;;;;;;;2.39;96.68;100504.19;5010561;28;20678;-54
2022/03/03 09:33:36;;;;;;;21.73;19.07;;;;;;;2.42;96.19;100510.22;5009506;28;20184;-53
2022/03/03 09:36:01;;;;;;;23.03;20.27;;;;;;;2.48;95.76;100508.69;4995079;28;20193;-56
2022/03/03 09:38:29;;;;;;;21.80;19.43;;;;;;;2.49;95.44;100510.41;5008310;28;20243;-54
2022/03/03 09:40:54;;;;;;;19.93;17.77;;;;;;;2.58;95.69;100506.38;5008850;28;20262;-53
2022/03/03 09:43:20;;;;;;;19.67;17.57;;;;;;;2.65;95.50;100507.41;4991819;28;20678;-53
2022/03/03 09:45:45;;;;;;;23.37;19.27;;;;;;;2.71;94.33;100509.31;5010125;28;20251;-53
2022/03/03 09:48:10;;;;;;;24.00;19.57;;;;;;;2.70;93.82;100505.00;5008857;28;20188;-55
2022/03/03 09:50:39;;;;;;;22.50;20.10;;;;;;;2.72;93.53;100505.91;5009082;28;20232;-54
2022/03/03 09:53:10;;;;;;;21.67;19.47;;;;;;;2.81;93.46;100502.72;5008772;28;20271;-55
2022/03/03 09:55:38;;;;;;;22.83;20.43;;;;;;;2.85;92.87;100497.75;5010105;28;20646;-54
2022/03/03 09:58:06;;;;;;;26.87;20.17;;;;;;;2.88;92.33;100502.91;5007808;28;20216;-54
2022/03/03 10:00:33;;;;;;;22.20;19.80;;;;;;;2.94;91.83;100504.78;5007757;28;20294;-54
2022/03/03 10:03:08;;;;;;;22.17;19.37;;;;;;;3.02;91.56;100503.28;5007177;28;20636;-55
2022/03/03 10:05:33;;;;;;;20.97;18.83;;;;;;;3.11;90.92;100507.75;5006115;28;20218;-52
2022/03/03 10:08:07;;;;;;;23.63;20.13;;;;;;;3.22;90.05;100499.47;5008686;28;20645;-56
2022/03/03 10:10:35;;;;;;;19.93;17.90;;;;;;;3.35;90.48;100504.94;5003544;28;20227;-54
2022/03/03 10:13:00;;;;;;;26.83;21.00;;;;;;;3.40;89.40;100514.44;5009378;28;20185;-56
2022/03/03 10:15:30;;;;;;;23.50;20.93;;;;;;;3.48;89.03;100502.66;5008853;28;20194;-52
2022/03/03 10:18:00;;;;;;;20.30;18.23;;;;;;;3.64;89.12;100494.53;4993881;28;20283;-55
2022/03/03 10:20:26;;;;;;;20.67;18.07;;;;;;;3.70;88.79;100493.78;4989445;28;20223;-55
2022/03/03 10:22:57;;;;;;;21.47;19.17;;;;;;;3.71;87.73;100500.66;5009219;28;20338;-54
2022/03/03 10:25:38;;;;;;;21.57;19.27;;;;;;;3.80;87.96;100503.41;5008844;28;21051;-55
2022/03/03 10:28:12;;;;;;;20.87;18.73;;;;;;;3.92;87.61;100497.69;5006945;28;20275;-53
2022/03/03 10:30:57;;;;;;;20.53;18.43;;;;;;;4.02;87.22;100500.44;5005884;28;20716;-53
2022/03/03 10:33:25;;;;;;;24.00;20.53;;;;;;;4.00;86.30;100497.84;5001767;28;20291;-56
2022/03/03 10:36:00;;;;;;;25.27;20.70;;;;;;;4.02;86.06;100496.19;5003647;28;20275;-54
2022/03/03 10:38:27;;;;;;;22.07;19.57;;;;;;;4.15;85.87;100499.00;5001865;28;20561;-55
2022/03/03 10:40:52;;;;;;;22.77;20.37;;;;;;;4.17;85.07;100494.78;4994811;28;20677;-54
2022/03/03 10:43:18;;;;;;;22.87;20.47;;;;;;;4.25;85.28;100495.78;5002083;28;20208;-54
2022/03/03 10:45:58;;;;;;;23.77;20.63;;;;;;;4.36;84.84;100490.88;5002101;28;20662;-54
2022/03/03 10:48:25;;;;;;;22.73;20.43;;;;;;;4.43;84.94;100491.03;5003122;28;20279;-54
2022/03/03 10:50:54;;;;;;;23.67;20.50;;;;;;;4.61;85.11;100491.38;5007505;28;20219;-54
2022/03/03 10:53:21;;;;;;;20.50;18.40;;;;;;;4.70;84.62;100487.25;5007072;28;20185;-54
2022/03/03 10:56:06;;;;;;;23.13;20.77;;;;;;;4.83;84.12;100482.38;5007355;28;20220;-55
2022/03/03 10:58:57;;;;;;;21.90;19.60;;;;;;;4.83;83.47;100477.25;5005121;28;20191;-55
2022/03/03 11:01:27;;;;;;;24.03;21.53;;;;;;;4.86;83.10;100465.34;5005489;28;20674;-54
2022/03/03 11:03:54;;;;;;;22.50;20.03;;;;;;;5.01;83.04;100466.44;5006869;28;20634;-55